sensor_id;sensor_type;location;lat;lon;timestamp;temperature;humidity
38428;DHT22;24211;49.980;19.776;2023-02-28T00:01:30;2.00;99.90
38428;DHT22;24211;49.980;19.776;2023-02-28T00:03:58;1.80;99.90
38428;DHT22;24211;49.980;19.776;2023-02-28T00:06:27;1.70;99.90
38428;DHT22;24211;49.980;19.776;2023-02-28T00:08:55;1.70;99.90
38428;DHT22;24211;49.980;19.776;2023-02-28T00:11:22;1.90;99.90
38428;DHT22;24211;49.980;19.776;2023-02-28T00:13:50;1.80;99.90
38428;DHT22;24211;49.980;19.776;2023-02-28T00:16:20;1.80;99.90
38428;DHT22;24211;49.980;19.776;2023-02-28T00:18:49;2.20;99.90
38428;DHT22;24211;49.980;19.776;2023-02-28T00:21:17;2.20;99.90
38428;DHT22;24211;49.980;19.776;2023-02-28T00:23:46;2.20;99.90
38428;DHT22;24211;49.980;19.776;2023-02-28T00:26:14;1.90;99.90
38428;DHT22;24211;49.980;19.776;2023-02-28T00:28:45;1.70;99.90
38428;DHT22;24211;49.980;19.776;2023-02-28T00:31:12;1.50;99.90
38428;DHT22;24211;49.980;19.776;2023-02-28T00:33:39;1.50;99.90
38428;DHT22;24211;49.980;19.776;2023-02-28T00:36:09;1.50;99.90
38428;DHT22;24211;49.980;19.776;2023-02-28T00:38:38;1.20;99.90
38428;DHT22;24211;49.980;19.776;2023-02-28T00:41:06;1.10;99.90
38428;DHT22;24211;49.980;19.776;2023-02-28T00:43:36;1.20;99.90
38428;DHT22;24211;49.980;19.776;2023-02-28T00:46:04;1.20;99.90
38428;DHT22;24211;49.980;19.776;2023-02-28T00:48:32;1.30;99.90
38428;DHT22;24211;49.980;19.776;2023-02-28T00:51:00;1.40;99.90
38428;DHT22;24211;49.980;19.776;2023-02-28T00:53:28;1.60;99.90
38428;DHT22;24211;49.980;19.776;2023-02-28T00:55:57;1.60;99.90
38428;DHT22;24211;49.980;19.776;2023-02-28T00:58:25;1.60;99.90
38428;DHT22;24211;49.980;19.776;2023-02-28T01:00:53;1.60;99.90
38428;DHT22;24211;49.980;19.776;2023-02-28T01:03:21;1.80;99.90
38428;DHT22;24211;49.980;19.776;2023-02-28T01:05:49;2.10;99.90
38428;DHT22;24211;49.980;19.776;2023-02-28T01:08:17;2.10;99.90
38428;DHT22;24211;49.980;19.776;2023-02-28T01:10:44;1.90;99.90
38428;DHT22;24211;49.980;19.776;2023-02-28T01:13:12;2.00;99.90
38428;DHT22;24211;49.980;19.776;2023-02-28T01:15:43;2.10;99.90
38428;DHT22;24211;49.980;19.776;2023-02-28T01:18:15;1.90;99.90
38428;DHT22;24211;49.980;19.776;2023-02-28T01:20:42;2.00;99.90
38428;DHT22;24211;49.980;19.776;2023-02-28T01:23:10;2.10;99.90
38428;DHT22;24211;49.980;19.776;2023-02-28T01:25:37;2.30;99.90
38428;DHT22;24211;49.980;19.776;2023-02-28T01:28:05;2.50;99.90
38428;DHT22;24211;49.980;19.776;2023-02-28T01:30:33;2.60;99.90
38428;DHT22;24211;49.980;19.776;2023-02-28T01:33:01;2.60;99.90
38428;DHT22;24211;49.980;19.776;2023-02-28T01:35:32;2.60;99.90
38428;DHT22;24211;49.980;19.776;2023-02-28T01:38:03;2.60;99.90
38428;DHT22;24211;49.980;19.776;2023-02-28T01:40:46;2.60;99.90
38428;DHT22;24211;49.980;19.776;2023-02-28T01:43:21;2.50;99.90
38428;DHT22;24211;49.980;19.776;2023-02-28T01:45:55;2.50;99.90
38428;DHT22;24211;49.980;19.776;2023-02-28T01:48:32;2.30;99.90
38428;DHT22;24211;49.980;19.776;2023-02-28T01:51:11;2.30;99.90
38428;DHT22;24211;49.980;19.776;2023-02-28T01:53:45;2.10;99.90
38428;DHT22;24211;49.980;19.776;2023-02-28T01:56:24;2.40;99.90
38428;DHT22;24211;49.980;19.776;2023-02-28T01:58:55;2.40;99.90
38428;DHT22;24211;49.980;19.776;2023-02-28T02:01:25;2.50;99.90
38428;DHT22;24211;49.980;19.776;2023-02-28T02:03:57;2.40;99.90
38428;DHT22;24211;49.980;19.776;2023-02-28T02:06:34;2.10;99.90
38428;DHT22;24211;49.980;19.776;2023-02-28T02:09:10;2.10;99.90
38428;DHT22;24211;49.980;19.776;2023-02-28T02:11:41;2.20;99.90
38428;DHT22;24211;49.980;19.776;2023-02-28T02:17:28;2.50;99.90
38428;DHT22;24211;49.980;19.776;2023-02-28T02:30:07;2.70;99.90
38428;DHT22;24211;49.980;19.776;2023-02-28T02:41:34;2.70;99.90
38428;DHT22;24211;49.980;19.776;2023-02-28T02:44:27;2.70;99.90
38428;DHT22;24211;49.980;19.776;2023-02-28T02:47:10;2.70;99.90
38428;DHT22;24211;49.980;19.776;2023-02-28T02:49:45;2.70;99.90
38428;DHT22;24211;49.980;19.776;2023-02-28T02:52:22;2.70;99.90
38428;DHT22;24211;49.980;19.776;2023-02-28T02:54:58;2.70;99.90
38428;DHT22;24211;49.980;19.776;2023-02-28T02:57:31;2.60;99.90
38428;DHT22;24211;49.980;19.776;2023-02-28T03:00:05;2.60;99.90
38428;DHT22;24211;49.980;19.776;2023-02-28T03:02:36;2.60;99.90
38428;DHT22;24211;49.980;19.776;2023-02-28T03:05:17;2.60;99.90
38428;DHT22;24211;49.980;19.776;2023-02-28T03:07:48;2.60;99.90
38428;DHT22;24211;49.980;19.776;2023-02-28T03:19:12;2.70;99.90
38428;DHT22;24211;49.980;19.776;2023-02-28T03:22:11;2.70;99.90
38428;DHT22;24211;49.980;19.776;2023-02-28T03:28:00;2.60;99.90
38428;DHT22;24211;49.980;19.776;2023-02-28T03:30:49;2.60;99.90
38428;DHT22;24211;49.980;19.776;2023-02-28T03:33:28;2.60;99.90
38428;DHT22;24211;49.980;19.776;2023-02-28T03:36:10;2.60;99.90
38428;DHT22;24211;49.980;19.776;2023-02-28T03:38:49;2.60;99.90
38428;DHT22;24211;49.980;19.776;2023-02-28T03:41:23;2.50;99.90
38428;DHT22;24211;49.980;19.776;2023-02-28T03:44:07;2.60;99.90
38428;DHT22;24211;49.980;19.776;2023-02-28T03:47:00;2.50;99.90
38428;DHT22;24211;49.980;19.776;2023-02-28T03:49:46;2.50;99.90
38428;DHT22;24211;49.980;19.776;2023-02-28T03:52:22;2.50;99.90
38428;DHT22;24211;49.980;19.776;2023-02-28T03:55:05;2.50;99.90
38428;DHT22;24211;49.980;19.776;2023-02-28T03:57:40;2.30;99.90
38428;DHT22;24211;49.980;19.776;2023-02-28T04:00:25;2.10;99.90
38428;DHT22;24211;49.980;19.776;2023-02-28T04:03:00;2.10;99.90
38428;DHT22;24211;49.980;19.776;2023-02-28T04:05:29;1.60;99.90
38428;DHT22;24211;49.980;19.776;2023-02-28T04:08:08;1.60;99.90
38428;DHT22;24211;49.980;19.776;2023-02-28T04:10:36;1.70;99.90
38428;DHT22;24211;49.980;19.776;2023-02-28T04:13:03;1.80;99.90
38428;DHT22;24211;49.980;19.776;2023-02-28T04:15:30;1.90;99.90
38428;DHT22;24211;49.980;19.776;2023-02-28T04:17:58;1.90;99.90
38428;DHT22;24211;49.980;19.776;2023-02-28T04:20:25;2.00;99.90
38428;DHT22;24211;49.980;19.776;2023-02-28T04:22:52;2.00;99.90
38428;DHT22;24211;49.980;19.776;2023-02-28T04:25:20;2.00;99.90
38428;DHT22;24211;49.980;19.776;2023-02-28T04:27:48;2.00;99.90
38428;DHT22;24211;49.980;19.776;2023-02-28T04:30:16;2.10;99.90
38428;DHT22;24211;49.980;19.776;2023-02-28T04:32:43;2.10;99.90
38428;DHT22;24211;49.980;19.776;2023-02-28T04:35:10;2.10;99.90
38428;DHT22;24211;49.980;19.776;2023-02-28T04:37:38;2.00;99.90
38428;DHT22;24211;49.980;19.776;2023-02-28T04:40:06;2.00;99.90
38428;DHT22;24211;49.980;19.776;2023-02-28T04:42:33;2.00;99.90
38428;DHT22;24211;49.980;19.776;2023-02-28T04:45:03;1.90;99.90
38428;DHT22;24211;49.980;19.776;2023-02-28T04:47:31;1.90;99.90
38428;DHT22;24211;49.980;19.776;2023-02-28T04:49:58;1.90;99.90
38428;DHT22;24211;49.980;19.776;2023-02-28T04:52:27;1.90;99.90
38428;DHT22;24211;49.980;19.776;2023-02-28T04:54:54;1.90;99.90
38428;DHT22;24211;49.980;19.776;2023-02-28T04:57:21;1.90;99.90
38428;DHT22;24211;49.980;19.776;2023-02-28T04:59:49;1.90;99.90
38428;DHT22;24211;49.980;19.776;2023-02-28T05:02:16;1.90;99.90
38428;DHT22;24211;49.980;19.776;2023-02-28T05:04:43;1.90;99.90
38428;DHT22;24211;49.980;19.776;2023-02-28T05:07:10;1.80;99.90
38428;DHT22;24211;49.980;19.776;2023-02-28T05:09:38;1.80;99.90
38428;DHT22;24211;49.980;19.776;2023-02-28T05:12:05;1.80;99.90
38428;DHT22;24211;49.980;19.776;2023-02-28T05:14:32;1.80;99.90
38428;DHT22;24211;49.980;19.776;2023-02-28T05:16:59;1.80;99.90
38428;DHT22;24211;49.980;19.776;2023-02-28T05:19:26;1.70;99.90
38428;DHT22;24211;49.980;19.776;2023-02-28T05:21:54;1.70;99.90
38428;DHT22;24211;49.980;19.776;2023-02-28T05:24:22;1.70;99.90
38428;DHT22;24211;49.980;19.776;2023-02-28T05:26:52;1.60;99.90
38428;DHT22;24211;49.980;19.776;2023-02-28T05:29:21;1.60;99.90
38428;DHT22;24211;49.980;19.776;2023-02-28T05:31:48;1.60;99.90
38428;DHT22;24211;49.980;19.776;2023-02-28T05:34:16;1.60;99.90
38428;DHT22;24211;49.980;19.776;2023-02-28T05:36:43;1.60;99.90
38428;DHT22;24211;49.980;19.776;2023-02-28T05:39:11;1.60;99.90
38428;DHT22;24211;49.980;19.776;2023-02-28T05:41:41;1.60;99.90
38428;DHT22;24211;49.980;19.776;2023-02-28T05:44:10;1.60;99.90
38428;DHT22;24211;49.980;19.776;2023-02-28T05:46:37;1.50;99.90
38428;DHT22;24211;49.980;19.776;2023-02-28T05:49:05;1.40;99.90
38428;DHT22;24211;49.980;19.776;2023-02-28T05:51:32;1.30;99.90
38428;DHT22;24211;49.980;19.776;2023-02-28T05:54:01;1.20;99.90
38428;DHT22;24211;49.980;19.776;2023-02-28T05:56:29;1.20;99.90
38428;DHT22;24211;49.980;19.776;2023-02-28T05:58:56;1.10;99.90
38428;DHT22;24211;49.980;19.776;2023-02-28T06:01:24;0.90;99.90
38428;DHT22;24211;49.980;19.776;2023-02-28T06:03:59;1.00;99.90
38428;DHT22;24211;49.980;19.776;2023-02-28T06:06:28;0.90;99.90
38428;DHT22;24211;49.980;19.776;2023-02-28T06:09:04;1.10;99.90
38428;DHT22;24211;49.980;19.776;2023-02-28T06:11:32;1.10;99.90
38428;DHT22;24211;49.980;19.776;2023-02-28T06:14:00;1.10;99.90
38428;DHT22;24211;49.980;19.776;2023-02-28T06:16:29;1.20;99.90
38428;DHT22;24211;49.980;19.776;2023-02-28T06:18:59;1.30;99.90
38428;DHT22;24211;49.980;19.776;2023-02-28T06:21:29;1.20;99.90
38428;DHT22;24211;49.980;19.776;2023-02-28T06:23:58;1.10;99.90
38428;DHT22;24211;49.980;19.776;2023-02-28T06:26:25;1.10;99.90
38428;DHT22;24211;49.980;19.776;2023-02-28T06:28:53;1.20;99.90
38428;DHT22;24211;49.980;19.776;2023-02-28T06:31:21;1.30;99.90
38428;DHT22;24211;49.980;19.776;2023-02-28T06:33:51;1.30;99.90
38428;DHT22;24211;49.980;19.776;2023-02-28T06:36:18;1.20;99.90
38428;DHT22;24211;49.980;19.776;2023-02-28T06:38:46;1.10;99.90
38428;DHT22;24211;49.980;19.776;2023-02-28T06:41:18;0.90;99.90
38428;DHT22;24211;49.980;19.776;2023-02-28T06:43:45;1.00;99.90
38428;DHT22;24211;49.980;19.776;2023-02-28T06:46:13;1.00;99.90
38428;DHT22;24211;49.980;19.776;2023-02-28T06:48:43;1.00;99.90
38428;DHT22;24211;49.980;19.776;2023-02-28T06:51:14;1.10;99.90
38428;DHT22;24211;49.980;19.776;2023-02-28T06:53:43;1.10;99.90
38428;DHT22;24211;49.980;19.776;2023-02-28T06:56:12;0.90;99.90
38428;DHT22;24211;49.980;19.776;2023-02-28T06:58:45;0.90;99.90
38428;DHT22;24211;49.980;19.776;2023-02-28T07:01:13;0.80;99.90
38428;DHT22;24211;49.980;19.776;2023-02-28T07:03:41;0.90;99.90
38428;DHT22;24211;49.980;19.776;2023-02-28T07:06:08;1.10;99.90
38428;DHT22;24211;49.980;19.776;2023-02-28T07:08:35;1.00;99.90
38428;DHT22;24211;49.980;19.776;2023-02-28T07:11:03;1.00;99.90
38428;DHT22;24211;49.980;19.776;2023-02-28T07:13:31;0.80;99.90
38428;DHT22;24211;49.980;19.776;2023-02-28T07:16:00;0.70;99.90
38428;DHT22;24211;49.980;19.776;2023-02-28T07:18:42;0.60;99.90
38428;DHT22;24211;49.980;19.776;2023-02-28T07:21:10;0.50;99.90
38428;DHT22;24211;49.980;19.776;2023-02-28T07:23:38;0.80;99.90
38428;DHT22;24211;49.980;19.776;2023-02-28T07:26:06;1.00;99.90
38428;DHT22;24211;49.980;19.776;2023-02-28T07:28:34;0.70;99.90
38428;DHT22;24211;49.980;19.776;2023-02-28T07:31:04;0.50;99.90
38428;DHT22;24211;49.980;19.776;2023-02-28T07:33:33;0.80;99.90
38428;DHT22;24211;49.980;19.776;2023-02-28T07:36:04;0.50;99.90
38428;DHT22;24211;49.980;19.776;2023-02-28T07:38:35;0.80;99.90
38428;DHT22;24211;49.980;19.776;2023-02-28T07:41:04;0.90;99.90
38428;DHT22;24211;49.980;19.776;2023-02-28T07:43:32;0.70;99.90
38428;DHT22;24211;49.980;19.776;2023-02-28T07:46:04;0.60;99.90
38428;DHT22;24211;49.980;19.776;2023-02-28T07:48:33;0.30;99.90
38428;DHT22;24211;49.980;19.776;2023-02-28T07:51:02;0.20;99.90
38428;DHT22;24211;49.980;19.776;2023-02-28T07:53:30;0.20;99.90
38428;DHT22;24211;49.980;19.776;2023-02-28T07:55:59;0.30;99.90
38428;DHT22;24211;49.980;19.776;2023-02-28T07:58:30;0.40;99.90
38428;DHT22;24211;49.980;19.776;2023-02-28T08:01:05;0.20;99.90
38428;DHT22;24211;49.980;19.776;2023-02-28T08:03:34;0.20;99.90
38428;DHT22;24211;49.980;19.776;2023-02-28T08:06:03;0.40;99.90
38428;DHT22;24211;49.980;19.776;2023-02-28T08:08:31;0.20;99.90
38428;DHT22;24211;49.980;19.776;2023-02-28T08:11:00;0.20;99.90
38428;DHT22;24211;49.980;19.776;2023-02-28T08:13:30;0.30;99.90
38428;DHT22;24211;49.980;19.776;2023-02-28T08:15:57;0.30;99.90
38428;DHT22;24211;49.980;19.776;2023-02-28T08:18:25;0.40;99.90
38428;DHT22;24211;49.980;19.776;2023-02-28T08:20:52;0.50;99.90
38428;DHT22;24211;49.980;19.776;2023-02-28T08:23:19;0.50;99.90
38428;DHT22;24211;49.980;19.776;2023-02-28T08:25:53;0.70;99.90
38428;DHT22;24211;49.980;19.776;2023-02-28T08:28:22;0.80;99.90
38428;DHT22;24211;49.980;19.776;2023-02-28T08:30:53;0.70;99.90
38428;DHT22;24211;49.980;19.776;2023-02-28T08:33:22;0.80;99.90
38428;DHT22;24211;49.980;19.776;2023-02-28T08:35:52;1.10;99.90
38428;DHT22;24211;49.980;19.776;2023-02-28T08:38:24;1.30;99.90
38428;DHT22;24211;49.980;19.776;2023-02-28T08:41:01;1.60;99.90
38428;DHT22;24211;49.980;19.776;2023-02-28T08:43:35;1.40;99.90
38428;DHT22;24211;49.980;19.776;2023-02-28T08:46:04;1.60;99.90
38428;DHT22;24211;49.980;19.776;2023-02-28T08:48:34;1.80;99.90
38428;DHT22;24211;49.980;19.776;2023-02-28T08:51:06;1.90;99.90
38428;DHT22;24211;49.980;19.776;2023-02-28T08:53:37;2.00;99.90
38428;DHT22;24211;49.980;19.776;2023-02-28T08:56:08;2.10;99.90
38428;DHT22;24211;49.980;19.776;2023-02-28T08:58:39;2.30;99.90
38428;DHT22;24211;49.980;19.776;2023-02-28T09:01:11;2.40;99.90
38428;DHT22;24211;49.980;19.776;2023-02-28T09:03:41;2.60;99.90
38428;DHT22;24211;49.980;19.776;2023-02-28T09:06:10;2.70;99.90
38428;DHT22;24211;49.980;19.776;2023-02-28T09:08:38;2.70;99.90
38428;DHT22;24211;49.980;19.776;2023-02-28T09:11:06;2.60;99.90
38428;DHT22;24211;49.980;19.776;2023-02-28T09:13:36;2.80;99.90
38428;DHT22;24211;49.980;19.776;2023-02-28T09:16:08;2.90;99.90
38428;DHT22;24211;49.980;19.776;2023-02-28T09:18:39;3.00;99.90
38428;DHT22;24211;49.980;19.776;2023-02-28T09:21:10;3.10;99.90
38428;DHT22;24211;49.980;19.776;2023-02-28T09:23:42;3.30;99.90
38428;DHT22;24211;49.980;19.776;2023-02-28T09:26:15;3.60;99.90
38428;DHT22;24211;49.980;19.776;2023-02-28T09:28:44;3.80;99.90
38428;DHT22;24211;49.980;19.776;2023-02-28T09:31:17;3.90;99.90
38428;DHT22;24211;49.980;19.776;2023-02-28T09:33:50;4.00;99.90
38428;DHT22;24211;49.980;19.776;2023-02-28T09:36:20;4.10;99.90
38428;DHT22;24211;49.980;19.776;2023-02-28T09:38:51;4.30;99.90
38428;DHT22;24211;49.980;19.776;2023-02-28T09:41:25;4.40;99.90
38428;DHT22;24211;49.980;19.776;2023-02-28T09:43:57;4.40;99.90
38428;DHT22;24211;49.980;19.776;2023-02-28T09:49:08;4.70;99.90
38428;DHT22;24211;49.980;19.776;2023-02-28T09:54:30;4.90;99.90
38428;DHT22;24211;49.980;19.776;2023-02-28T09:57:30;4.80;99.90
38428;DHT22;24211;49.980;19.776;2023-02-28T10:00:19;5.10;99.90
38428;DHT22;24211;49.980;19.776;2023-02-28T10:03:01;5.20;99.90
38428;DHT22;24211;49.980;19.776;2023-02-28T10:08:41;5.30;99.90
38428;DHT22;24211;49.980;19.776;2023-02-28T10:11:18;5.60;99.90
38428;DHT22;24211;49.980;19.776;2023-02-28T10:13:59;5.70;99.90
38428;DHT22;24211;49.980;19.776;2023-02-28T10:16:46;5.40;99.90
38428;DHT22;24211;49.980;19.776;2023-02-28T10:19:22;5.50;99.90
38428;DHT22;24211;49.980;19.776;2023-02-28T10:22:09;5.50;99.90
38428;DHT22;24211;49.980;19.776;2023-02-28T10:24:49;5.20;99.60
38428;DHT22;24211;49.980;19.776;2023-02-28T10:27:24;5.00;99.90
38428;DHT22;24211;49.980;19.776;2023-02-28T10:29:57;5.40;99.90
38428;DHT22;24211;49.980;19.776;2023-02-28T10:32:33;5.90;99.90
38428;DHT22;24211;49.980;19.776;2023-02-28T10:35:17;5.60;98.30
38428;DHT22;24211;49.980;19.776;2023-02-28T10:37:50;6.00;99.90
38428;DHT22;24211;49.980;19.776;2023-02-28T10:45:32;6.00;99.90
38428;DHT22;24211;49.980;19.776;2023-02-28T10:48:04;6.50;99.90
38428;DHT22;24211;49.980;19.776;2023-02-28T10:50:52;6.50;99.90
38428;DHT22;24211;49.980;19.776;2023-02-28T10:56:03;6.00;99.60
38428;DHT22;24211;49.980;19.776;2023-02-28T10:58:46;5.80;98.90
38428;DHT22;24211;49.980;19.776;2023-02-28T11:01:39;5.60;99.90
38428;DHT22;24211;49.980;19.776;2023-02-28T11:04:18;5.70;99.90
38428;DHT22;24211;49.980;19.776;2023-02-28T11:06:46;6.10;99.90
38428;DHT22;24211;49.980;19.776;2023-02-28T11:09:24;6.30;99.90
38428;DHT22;24211;49.980;19.776;2023-02-28T11:11:57;6.00;99.90
38428;DHT22;24211;49.980;19.776;2023-02-28T11:14:30;6.00;99.90
38428;DHT22;24211;49.980;19.776;2023-02-28T11:17:13;6.00;99.90
38428;DHT22;24211;49.980;19.776;2023-02-28T11:19:49;6.20;99.90
38428;DHT22;24211;49.980;19.776;2023-02-28T11:22:22;6.10;99.90
38428;DHT22;24211;49.980;19.776;2023-02-28T11:24:59;6.20;99.90
38428;DHT22;24211;49.980;19.776;2023-02-28T11:27:40;5.90;99.40
38428;DHT22;24211;49.980;19.776;2023-02-28T11:36:02;6.50;99.60
38428;DHT22;24211;49.980;19.776;2023-02-28T11:38:36;6.30;99.90
38428;DHT22;24211;49.980;19.776;2023-02-28T11:41:26;6.80;99.90
38428;DHT22;24211;49.980;19.776;2023-02-28T11:46:47;6.80;99.90
38428;DHT22;24211;49.980;19.776;2023-02-28T11:52:38;7.40;99.90
38428;DHT22;24211;49.980;19.776;2023-02-28T12:04:12;7.20;99.90
38428;DHT22;24211;49.980;19.776;2023-02-28T12:07:03;7.50;99.90
38428;DHT22;24211;49.980;19.776;2023-02-28T12:10:28;7.60;99.90
38428;DHT22;24211;49.980;19.776;2023-02-28T12:13:01;7.30;99.90
38428;DHT22;24211;49.980;19.776;2023-02-28T12:16:09;7.80;99.90
38428;DHT22;24211;49.980;19.776;2023-02-28T12:22:05;7.90;99.90
38428;DHT22;24211;49.980;19.776;2023-02-28T12:27:42;7.50;98.00
38428;DHT22;24211;49.980;19.776;2023-02-28T12:33:45;7.70;99.90
38428;DHT22;24211;49.980;19.776;2023-02-28T12:36:19;8.20;99.90
38428;DHT22;24211;49.980;19.776;2023-02-28T12:38:53;8.60;99.90
38428;DHT22;24211;49.980;19.776;2023-02-28T12:41:39;8.50;99.90
38428;DHT22;24211;49.980;19.776;2023-02-28T12:44:17;8.70;99.90
38428;DHT22;24211;49.980;19.776;2023-02-28T12:46:57;8.70;99.90
38428;DHT22;24211;49.980;19.776;2023-02-28T12:49:36;8.50;99.90
38428;DHT22;24211;49.980;19.776;2023-02-28T12:52:29;8.50;99.90
38428;DHT22;24211;49.980;19.776;2023-02-28T12:55:21;8.30;99.90
38428;DHT22;24211;49.980;19.776;2023-02-28T13:10:47;8.90;99.90
38428;DHT22;24211;49.980;19.776;2023-02-28T13:13:24;9.00;99.90
38428;DHT22;24211;49.980;19.776;2023-02-28T13:16:14;8.40;99.90
38428;DHT22;24211;49.980;19.776;2023-02-28T13:18:46;8.90;99.90
38428;DHT22;24211;49.980;19.776;2023-02-28T13:21:28;8.90;99.90
38428;DHT22;24211;49.980;19.776;2023-02-28T13:24:03;8.60;99.90
38428;DHT22;24211;49.980;19.776;2023-02-28T13:29:34;7.30;99.90
38428;DHT22;24211;49.980;19.776;2023-02-28T13:35:34;8.10;99.90
38428;DHT22;24211;49.980;19.776;2023-02-28T13:37:43;8.40;99.90
38428;DHT22;24211;49.980;19.776;2023-02-28T13:42:47;8.80;99.90
38428;DHT22;24211;49.980;19.776;2023-02-28T13:45:23;8.60;99.90
38428;DHT22;24211;49.980;19.776;2023-02-28T13:48:04;8.60;99.90
38428;DHT22;24211;49.980;19.776;2023-02-28T13:50:43;8.50;99.90
38428;DHT22;24211;49.980;19.776;2023-02-28T13:53:20;8.30;99.90
38428;DHT22;24211;49.980;19.776;2023-02-28T13:56:21;8.50;99.90
38428;DHT22;24211;49.980;19.776;2023-02-28T13:59:26;7.70;96.30
38428;DHT22;24211;49.980;19.776;2023-02-28T14:05:15;8.20;99.90
38428;DHT22;24211;49.980;19.776;2023-02-28T14:07:48;8.40;99.90
38428;DHT22;24211;49.980;19.776;2023-02-28T14:10:31;8.70;99.90
38428;DHT22;24211;49.980;19.776;2023-02-28T14:13:03;8.10;99.90
38428;DHT22;24211;49.980;19.776;2023-02-28T14:16:01;7.40;99.90
38428;DHT22;24211;49.980;19.776;2023-02-28T14:18:33;6.90;99.90
38428;DHT22;24211;49.980;19.776;2023-02-28T14:21:09;6.50;99.90
38428;DHT22;24211;49.980;19.776;2023-02-28T14:23:54;7.50;99.90
38428;DHT22;24211;49.980;19.776;2023-02-28T14:30:01;7.80;99.90
38428;DHT22;24211;49.980;19.776;2023-02-28T14:32:51;8.10;99.90
38428;DHT22;24211;49.980;19.776;2023-02-28T14:38:40;6.80;99.10
38428;DHT22;24211;49.980;19.776;2023-02-28T14:41:31;6.60;99.90
38428;DHT22;24211;49.980;19.776;2023-02-28T14:44:11;6.50;99.90
38428;DHT22;24211;49.980;19.776;2023-02-28T14:46:54;6.50;99.90
38428;DHT22;24211;49.980;19.776;2023-02-28T14:49:27;6.80;99.90
38428;DHT22;24211;49.980;19.776;2023-02-28T14:54:39;6.90;99.90
38428;DHT22;24211;49.980;19.776;2023-02-28T14:57:29;7.20;99.90
38428;DHT22;24211;49.980;19.776;2023-02-28T15:00:30;7.30;99.90
38428;DHT22;24211;49.980;19.776;2023-02-28T15:05:59;7.40;99.90
38428;DHT22;24211;49.980;19.776;2023-02-28T15:08:39;7.30;99.90
38428;DHT22;24211;49.980;19.776;2023-02-28T15:11:13;7.20;99.90
38428;DHT22;24211;49.980;19.776;2023-02-28T15:13:46;6.90;99.90
38428;DHT22;24211;49.980;19.776;2023-02-28T15:16:22;6.70;99.90
38428;DHT22;24211;49.980;19.776;2023-02-28T15:19:02;6.90;99.90
38428;DHT22;24211;49.980;19.776;2023-02-28T15:21:40;6.70;99.90
38428;DHT22;24211;49.980;19.776;2023-02-28T15:24:42;6.70;99.90
38428;DHT22;24211;49.980;19.776;2023-02-28T15:27:29;6.70;99.90
38428;DHT22;24211;49.980;19.776;2023-02-28T15:30:06;6.70;99.90
38428;DHT22;24211;49.980;19.776;2023-02-28T15:32:37;6.60;99.90
38428;DHT22;24211;49.980;19.776;2023-02-28T15:35:25;6.70;99.90
38428;DHT22;24211;49.980;19.776;2023-02-28T15:38:00;6.70;99.90
38428;DHT22;24211;49.980;19.776;2023-02-28T15:40:36;6.30;99.90
38428;DHT22;24211;49.980;19.776;2023-02-28T15:48:54;6.40;99.90
38428;DHT22;24211;49.980;19.776;2023-02-28T15:51:36;6.50;99.90
38428;DHT22;24211;49.980;19.776;2023-02-28T15:54:08;6.40;99.90
38428;DHT22;24211;49.980;19.776;2023-02-28T15:56:44;6.30;99.90
38428;DHT22;24211;49.980;19.776;2023-02-28T15:59:19;6.20;99.90
38428;DHT22;24211;49.980;19.776;2023-02-28T16:04:37;6.00;99.90
38428;DHT22;24211;49.980;19.776;2023-02-28T16:07:43;5.90;99.90
38428;DHT22;24211;49.980;19.776;2023-02-28T16:10:12;5.90;99.90
38428;DHT22;24211;49.980;19.776;2023-02-28T16:12:44;5.90;99.90
38428;DHT22;24211;49.980;19.776;2023-02-28T16:15:19;5.90;99.90
38428;DHT22;24211;49.980;19.776;2023-02-28T16:17:49;5.90;99.90
38428;DHT22;24211;49.980;19.776;2023-02-28T16:20:26;5.70;99.90
38428;DHT22;24211;49.980;19.776;2023-02-28T16:22:57;5.60;99.90
38428;DHT22;24211;49.980;19.776;2023-02-28T16:25:42;5.70;99.90
38428;DHT22;24211;49.980;19.776;2023-02-28T16:28:20;5.60;99.90
38428;DHT22;24211;49.980;19.776;2023-02-28T16:30:53;5.60;99.90
38428;DHT22;24211;49.980;19.776;2023-02-28T16:33:21;5.60;99.90
38428;DHT22;24211;49.980;19.776;2023-02-28T16:35:48;5.60;99.90
38428;DHT22;24211;49.980;19.776;2023-02-28T16:38:16;5.60;99.90
38428;DHT22;24211;49.980;19.776;2023-02-28T16:40:43;5.60;99.90
38428;DHT22;24211;49.980;19.776;2023-02-28T16:43:18;5.50;99.90
38428;DHT22;24211;49.980;19.776;2023-02-28T16:45:49;5.50;99.90
38428;DHT22;24211;49.980;19.776;2023-02-28T16:48:22;5.40;99.90
38428;DHT22;24211;49.980;19.776;2023-02-28T16:50:49;5.40;99.90
38428;DHT22;24211;49.980;19.776;2023-02-28T16:53:16;5.30;99.90
38428;DHT22;24211;49.980;19.776;2023-02-28T16:55:43;5.30;99.90
38428;DHT22;24211;49.980;19.776;2023-02-28T16:58:15;5.30;99.90
38428;DHT22;24211;49.980;19.776;2023-02-28T17:00:44;5.10;99.90
38428;DHT22;24211;49.980;19.776;2023-02-28T17:05:59;5.10;99.90
38428;DHT22;24211;49.980;19.776;2023-02-28T17:08:27;5.10;99.90
38428;DHT22;24211;49.980;19.776;2023-02-28T17:10:56;5.00;99.90
38428;DHT22;24211;49.980;19.776;2023-02-28T17:13:23;5.00;99.90
38428;DHT22;24211;49.980;19.776;2023-02-28T17:15:50;4.90;99.90
38428;DHT22;24211;49.980;19.776;2023-02-28T17:18:18;4.90;99.90
38428;DHT22;24211;49.980;19.776;2023-02-28T17:20:48;4.90;99.90
38428;DHT22;24211;49.980;19.776;2023-02-28T17:23:15;4.90;99.90
38428;DHT22;24211;49.980;19.776;2023-02-28T17:25:42;4.80;99.90
38428;DHT22;24211;49.980;19.776;2023-02-28T17:28:23;4.80;99.90
38428;DHT22;24211;49.980;19.776;2023-02-28T17:30:50;4.80;99.90
38428;DHT22;24211;49.980;19.776;2023-02-28T17:33:18;4.80;99.90
38428;DHT22;24211;49.980;19.776;2023-02-28T17:35:45;4.80;99.90
38428;DHT22;24211;49.980;19.776;2023-02-28T17:38:18;4.70;99.90
38428;DHT22;24211;49.980;19.776;2023-02-28T17:40:46;4.70;99.90
38428;DHT22;24211;49.980;19.776;2023-02-28T17:43:13;4.70;99.90
38428;DHT22;24211;49.980;19.776;2023-02-28T17:45:42;4.70;99.90
38428;DHT22;24211;49.980;19.776;2023-02-28T17:48:11;4.60;99.90
38428;DHT22;24211;49.980;19.776;2023-02-28T17:50:41;4.60;99.90
38428;DHT22;24211;49.980;19.776;2023-02-28T17:53:08;4.60;99.90
38428;DHT22;24211;49.980;19.776;2023-02-28T17:55:36;4.70;99.90
38428;DHT22;24211;49.980;19.776;2023-02-28T17:58:03;4.60;99.90
38428;DHT22;24211;49.980;19.776;2023-02-28T18:00:30;4.60;99.90
38428;DHT22;24211;49.980;19.776;2023-02-28T18:03:00;4.60;99.90
38428;DHT22;24211;49.980;19.776;2023-02-28T18:05:28;4.60;99.90
38428;DHT22;24211;49.980;19.776;2023-02-28T18:07:56;4.60;99.90
38428;DHT22;24211;49.980;19.776;2023-02-28T18:10:23;4.60;99.90
38428;DHT22;24211;49.980;19.776;2023-02-28T18:12:51;4.60;99.90
38428;DHT22;24211;49.980;19.776;2023-02-28T18:15:20;4.60;99.90
38428;DHT22;24211;49.980;19.776;2023-02-28T18:17:49;4.60;99.90